Time;durP1;ratioP1;P1;durP2;ratioP2;P2;SDS_P1;SDS_P2;PMS_P1;PMS_P2;Temp;Humidity;BMP_temperature;BMP_pressure;BME280_temperature;BME280_humidity;BME280_pressure;Samples;Min_cycle;Max_cycle;Signal;HPM_P1;HPM_P2
2022/05/11 00:00:52;;;;;;;8.60;5.25;;;;;;;16.11;73.15;101184.84;4936008;29;20055;-83
2022/05/11 00:03:20;;;;;;;8.93;5.70;;;;;;;16.18;73.50;101184.44;4936096;29;20058;-82
2022/05/11 00:05:49;;;;;;;11.93;5.70;;;;;;;16.03;73.76;101189.09;4935773;29;20502;-82
2022/05/11 00:08:17;;;;;;;9.10;5.50;;;;;;;15.91;75.06;101184.03;4933020;29;20054;-83
2022/05/11 00:10:46;;;;;;;9.13;5.75;;;;;;;15.80;75.86;101186.13;4935707;29;20055;-83
2022/05/11 00:13:14;;;;;;;6.80;4.60;;;;;;;15.83;75.26;101182.78;4935548;29;20054;-83
2022/05/11 00:15:42;;;;;;;11.00;5.45;;;;;;;15.95;74.54;101181.53;4935377;29;20078;-83
2022/05/11 00:18:10;;;;;;;9.77;5.30;;;;;;;15.94;74.83;101186.22;4935113;29;20058;-83
2022/05/11 00:20:38;;;;;;;10.57;5.60;;;;;;;15.81;75.37;101176.75;4935570;29;20055;-83
2022/05/11 00:23:06;;;;;;;10.43;5.25;;;;;;;15.85;75.33;101177.75;4935364;29;20055;-83
2022/05/11 00:25:34;;;;;;;8.05;5.35;;;;;;;15.78;75.92;101174.56;4935190;29;20063;-83
2022/05/11 00:28:02;;;;;;;7.22;4.93;;;;;;;15.82;76.31;101178.38;4934727;29;20054;-82
2022/05/11 00:30:30;;;;;;;7.88;5.03;;;;;;;15.85;75.93;101168.69;4934981;29;20506;-83
2022/05/11 00:32:59;;;;;;;10.75;5.47;;;;;;;15.80;76.01;101177.84;4935886;29;20043;-83
2022/05/11 00:35:33;;;;;;;8.43;5.60;;;;;;;15.83;76.09;101180.00;4933079;29;20052;-83
2022/05/11 00:38:03;;;;;;;8.60;5.22;;;;;;;15.84;76.17;101172.56;4922277;29;20047;-83
2022/05/11 00:40:33;;;;;;;11.57;5.82;;;;;;;15.81;76.46;101171.22;4935615;29;20051;-83
2022/05/11 00:43:00;;;;;;;9.70;5.65;;;;;;;15.77;76.25;101174.88;4934268;29;20059;-83
2022/05/11 00:45:28;;;;;;;8.85;5.28;;;;;;;15.83;75.22;101168.16;4935015;29;20055;-83
2022/05/11 00:48:01;;;;;;;9.05;5.90;;;;;;;15.77;75.63;101172.13;4935029;29;20056;-83
2022/05/11 00:50:34;;;;;;;9.32;5.22;;;;;;;15.63;76.33;101163.81;4934946;29;20048;-83
2022/05/11 00:53:11;;;;;;;9.55;5.88;;;;;;;15.61;76.47;101168.78;4935421;29;20044;-83
2022/05/11 00:55:45;;;;;;;11.05;6.10;;;;;;;15.48;77.93;101167.63;4934925;29;20058;-83
2022/05/11 00:58:22;;;;;;;9.18;5.95;;;;;;;15.51;77.65;101167.84;4935028;29;20052;-83
2022/05/11 01:00:50;;;;;;;9.20;5.82;;;;;;;15.51;77.40;101176.13;4934740;29;20063;-83
2022/05/11 01:03:23;;;;;;;8.02;5.47;;;;;;;15.46;77.07;101167.91;4934371;29;20051;-83
2022/05/11 01:05:51;;;;;;;9.13;5.53;;;;;;;15.40;78.00;101160.84;4935894;29;20406;-83
2022/05/11 01:08:20;;;;;;;9.48;5.10;;;;;;;15.54;77.71;101166.41;4938083;29;20403;-83
2022/05/11 01:10:49;;;;;;;8.77;5.95;;;;;;;15.68;76.54;101166.47;4936029;29;20054;-83
2022/05/11 01:13:19;;;;;;;7.78;5.80;;;;;;;15.54;77.30;101169.19;4918036;29;20742;-83
2022/05/11 01:15:50;;;;;;;10.38;6.00;;;;;;;15.47;77.25;101166.78;4934711;29;20062;-83
2022/05/11 01:18:20;;;;;;;7.63;5.07;;;;;;;15.33;78.86;101172.22;4934440;29;20047;-83
2022/05/11 01:20:48;;;;;;;10.68;5.38;;;;;;;15.20;79.31;101171.03;4935341;29;20050;-83
2022/05/11 01:23:40;;;;;;;9.50;6.00;;;;;;;15.15;79.43;101171.91;4934449;29;20056;-83
2022/05/11 01:26:08;;;;;;;12.23;5.55;;;;;;;15.17;79.26;101169.66;4934862;29;20048;-83
2022/05/11 01:28:48;;;;;;;10.95;6.47;;;;;;;15.13;79.92;101167.81;4933829;29;20070;-82
2022/05/11 01:31:16;;;;;;;11.00;5.57;;;;;;;15.08;79.54;101167.88;4934677;29;20063;-83
2022/05/11 01:33:47;;;;;;;8.65;5.65;;;;;;;15.03;80.52;101158.59;4934956;29;20133;-83
2022/05/11 01:36:26;;;;;;;7.00;5.38;;;;;;;14.98;82.74;101166.91;4934229;29;20402;-83
2022/05/11 01:39:02;;;;;;;8.60;5.72;;;;;;;14.91;81.35;101160.94;4934307;29;20063;-83
2022/05/11 01:41:33;;;;;;;10.77;6.05;;;;;;;14.94;80.68;101154.84;4910293;29;20048;-82
2022/05/11 01:44:04;;;;;;;8.70;6.07;;;;;;;14.95;80.96;101161.97;4934063;29;20519;-82
2022/05/11 01:46:33;;;;;;;9.00;5.43;;;;;;;15.00;80.44;101169.38;4934389;29;20059;-83
2022/05/11 01:49:01;;;;;;;8.77;5.80;;;;;;;15.14;79.08;101167.53;4933878;29;20058;-82
2022/05/11 01:51:29;;;;;;;12.10;5.45;;;;;;;15.19;79.09;101166.63;4918029;29;20046;-82
2022/05/11 01:53:57;;;;;;;10.05;6.18;;;;;;;15.10;80.30;101168.41;4934098;29;20060;-82
2022/05/11 01:56:26;;;;;;;10.85;6.13;;;;;;;14.98;80.25;101158.66;4934630;29;20044;-82
2022/05/11 01:58:54;;;;;;;9.13;5.47;;;;;;;14.90;81.81;101162.03;4934650;29;20047;-83
2022/05/11 02:01:29;;;;;;;10.95;6.65;;;;;;;15.00;80.55;101159.16;4934233;29;20056;-83
2022/05/11 02:03:57;;;;;;;11.73;5.97;;;;;;;15.04;80.87;101160.22;4933830;29;20060;-82
2022/05/11 02:09:13;;;;;;;9.77;6.00;;;;;;;14.88;81.04;101161.53;4934090;29;20064;-82
2022/05/11 02:11:41;;;;;;;9.80;5.80;;;;;;;14.95;80.56;101156.47;4921161;29;20044;-82
2022/05/11 02:14:09;;;;;;;9.82;6.00;;;;;;;14.91;81.00;101155.44;4933292;29;20063;-82
2022/05/11 02:16:37;;;;;;;10.82;6.70;;;;;;;14.81;81.85;101155.56;4931465;29;20067;-82
2022/05/11 02:19:05;;;;;;;13.57;6.82;;;;;;;14.71;82.80;101148.22;4925607;29;20055;-82
2022/05/11 02:21:33;;;;;;;10.63;6.40;;;;;;;14.68;83.27;101146.03;4938073;29;20051;-82
2022/05/11 02:24:01;;;;;;;11.10;6.13;;;;;;;14.64;83.61;101154.06;4937733;29;20055;-82
2022/05/11 02:26:29;;;;;;;12.55;5.78;;;;;;;14.63;83.42;101160.69;4937330;29;20048;-83
2022/05/11 02:28:57;;;;;;;8.25;6.28;;;;;;;14.60;83.66;101155.75;4920201;29;20043;-82
2022/05/11 02:31:24;;;;;;;9.55;6.50;;;;;;;14.57;84.15;101162.66;4937694;29;20051;-83
2022/05/11 02:33:52;;;;;;;13.48;6.13;;;;;;;14.76;82.89;101149.00;4937527;29;20426;-83
2022/05/11 02:36:20;;;;;;;13.63;6.30;;;;;;;14.86;82.53;101150.78;4937030;29;20058;-82
2022/05/11 02:38:48;;;;;;;8.10;5.88;;;;;;;14.88;82.35;101156.84;4937546;29;20503;-83
2022/05/11 02:41:16;;;;;;;9.40;6.10;;;;;;;15.01;81.18;101160.78;4936882;29;20059;-82
2022/05/11 02:43:43;;;;;;;14.10;6.60;;;;;;;14.99;82.08;101160.28;4937482;29;20048;-82
2022/05/11 02:46:11;;;;;;;12.63;6.72;;;;;;;14.87;82.19;101159.88;4937766;29;20046;-82
2022/05/11 02:48:39;;;;;;;9.60;6.30;;;;;;;14.72;82.45;101158.91;4937218;29;20048;-83
2022/05/11 02:51:08;;;;;;;7.93;6.32;;;;;;;14.61;83.90;101157.41;4936843;29;20067;-82
2022/05/11 02:53:38;;;;;;;12.20;6.32;;;;;;;14.54;83.56;101160.53;4936983;29;20549;-82
2022/05/11 02:56:06;;;;;;;10.95;6.53;;;;;;;14.50;84.04;101162.22;4936720;29;20051;-82
2022/05/11 02:58:34;;;;;;;10.40;6.97;;;;;;;14.45;84.78;101165.84;4936751;29;20529;-82
2022/05/11 03:01:03;;;;;;;11.57;6.85;;;;;;;14.46;84.47;101167.47;4937255;29;20051;-82
2022/05/11 03:03:35;;;;;;;10.95;6.00;;;;;;;14.42;84.68;101174.69;4936940;29;20067;-83
2022/05/11 03:06:07;;;;;;;12.23;6.85;;;;;;;14.36;85.14;101173.09;4936577;29;20059;-82
2022/05/11 03:08:36;;;;;;;11.20;6.45;;;;;;;14.47;84.09;101163.59;4936651;29;20466;-82
2022/05/11 03:11:05;;;;;;;11.68;6.63;;;;;;;14.59;84.05;101170.66;4936522;29;20056;-82
2022/05/11 03:13:32;;;;;;;12.95;7.07;;;;;;;14.51;84.69;101172.94;4937355;29;20050;-82
2022/05/11 03:16:00;;;;;;;11.25;6.40;;;;;;;14.46;84.89;101177.66;4937344;29;20399;-82
2022/05/11 03:18:29;;;;;;;10.35;6.22;;;;;;;14.54;84.52;101173.47;4936376;29;20047;-82
2022/05/11 03:20:58;;;;;;;13.90;7.32;;;;;;;14.67;83.99;101174.69;4924915;29;20056;-82
2022/05/11 03:23:27;;;;;;;10.75;6.65;;;;;;;14.73;83.59;101170.78;4919559;29;20048;-82
2022/05/11 03:25:56;;;;;;;9.05;6.68;;;;;;;14.72;83.74;101164.44;4927472;29;20051;-82
2022/05/11 03:28:25;;;;;;;11.23;6.75;;;;;;;14.56;84.90;101176.75;4929653;29;20047;-82
2022/05/11 03:30:53;;;;;;;12.98;6.47;;;;;;;14.42;85.62;101171.91;4936182;29;20055;-82
2022/05/11 03:36:07;;;;;;;12.82;7.72;;;;;;;14.29;86.27;101172.63;4936382;29;20052;-83
2022/05/11 03:38:35;;;;;;;13.00;6.80;;;;;;;14.30;85.77;101164.06;4936270;29;20079;-83
2022/05/11 03:41:03;;;;;;;9.52;6.50;;;;;;;14.34;85.72;101175.31;4934336;29;20422;-83
2022/05/11 03:43:31;;;;;;;10.75;7.07;;;;;;;14.28;86.52;101170.97;4935759;29;20051;-83
2022/05/11 03:46:02;;;;;;;9.85;5.65;;;;;;;14.40;86.76;101168.66;4935831;29;20067;-81
2022/05/11 03:48:30;;;;;;;12.23;6.53;;;;;;;14.54;85.05;101171.53;4935369;29;20051;-81
2022/05/11 03:50:58;;;;;;;9.77;6.85;;;;;;;14.54;84.61;101173.47;4922963;29;20070;-81
2022/05/11 03:53:26;;;;;;;9.98;6.47;;;;;;;14.50;85.09;101175.97;4936000;29;20056;-81
2022/05/11 03:55:54;;;;;;;11.00;7.05;;;;;;;14.49;84.86;101175.19;4936280;29;20055;-81
2022/05/11 03:58:22;;;;;;;11.13;6.80;;;;;;;14.50;84.97;101174.06;4935990;29;20055;-81
2022/05/11 04:00:54;;;;;;;10.35;6.60;;;;;;;14.47;85.36;101177.38;4935059;29;20056;-81
2022/05/11 04:03:22;;;;;;;12.38;7.25;;;;;;;14.43;85.80;101173.59;4935284;29;20048;-82
2022/05/11 04:05:51;;;;;;;11.75;7.05;;;;;;;14.49;85.68;101177.94;4935286;29;20407;-82
2022/05/11 04:08:19;;;;;;;12.77;6.82;;;;;;;14.53;85.61;101178.16;4935151;29;20051;-82
2022/05/11 04:10:47;;;;;;;15.65;7.25;;;;;;;14.42;86.04;101176.63;4935749;29;20044;-82
2022/05/11 04:13:15;;;;;;;13.77;7.15;;;;;;;14.37;87.91;101185.75;4935935;29;20054;-82
2022/05/11 04:15:43;;;;;;;16.05;7.30;;;;;;;14.40;86.94;101174.16;4935287;29;20063;-82
2022/05/11 04:18:11;;;;;;;10.57;6.43;;;;;;;14.41;87.19;101184.06;4935326;29;20060;-82
2022/05/11 04:20:39;;;;;;;9.90;6.65;;;;;;;14.47;85.31;101184.84;4935261;29;20056;-82
2022/05/11 04:23:07;;;;;;;11.05;7.20;;;;;;;14.50;85.52;101185.06;4934229;29;20051;-81
2022/05/11 04:25:35;;;;;;;10.73;6.43;;;;;;;14.69;83.72;101187.06;4934551;29;20059;-82
2022/05/11 04:28:07;;;;;;;10.68;6.45;;;;;;;14.77;83.69;101194.72;4934113;29;20044;-82
2022/05/11 04:30:35;;;;;;;15.13;7.28;;;;;;;14.84;82.84;101197.13;4935822;29;20039;-82
2022/05/11 04:33:03;;;;;;;10.50;6.15;;;;;;;14.90;82.41;101203.38;4934278;29;20062;-81
2022/05/11 04:35:31;;;;;;;10.90;6.07;;;;;;;14.90;83.03;101198.69;4935291;29;20055;-81
2022/05/11 04:38:01;;;;;;;7.90;5.75;;;;;;;14.88;83.06;101195.44;4933737;29;20048;-81
2022/05/11 04:40:29;;;;;;;11.52;6.80;;;;;;;14.87;82.46;101204.78;4935857;29;20391;-82
2022/05/11 04:42:57;;;;;;;9.60;5.95;;;;;;;14.90;82.69;101208.88;4934997;29;20051;-81
2022/05/11 04:45:25;;;;;;;13.63;6.65;;;;;;;15.07;81.96;101202.06;4935693;29;20066;-82
2022/05/11 04:47:53;;;;;;;11.25;6.25;;;;;;;15.18;82.21;101209.09;4935156;29;20036;-81
2022/05/11 04:50:21;;;;;;;10.18;6.65;;;;;;;15.43;80.64;101215.38;4935466;29;20052;-83
2022/05/11 04:52:51;;;;;;;13.02;6.57;;;;;;;15.55;80.55;101212.19;4937004;29;20047;-84
2022/05/11 04:55:19;;;;;;;11.20;5.88;;;;;;;15.70;80.16;101220.22;4929430;29;20073;-90
2022/05/11 04:57:48;;;;;;;10.80;6.50;;;;;;;15.74;80.51;101225.97;4930584;29;20050;-90
2022/05/11 05:00:16;;;;;;;10.70;6.57;;;;;;;15.88;80.30;101220.50;4931991;29;20054;-88
2022/05/11 05:02:44;;;;;;;12.68;6.90;;;;;;;15.92;79.73;101227.09;4938334;29;20070;-88
2022/05/11 05:05:13;;;;;;;18.85;6.57;;;;;;;16.27;78.57;101224.03;4941060;29;20054;-78
2022/05/11 05:07:41;;;;;;;11.73;6.03;;;;;;;16.45;77.01;101227.88;4915125;29;20054;-78
2022/05/11 05:10:12;;;;;;;9.38;5.68;;;;;;;16.66;76.16;101236.59;4895002;29;20125;-77
2022/05/11 05:12:42;;;;;;;11.35;6.25;;;;;;;16.82;74.43;101230.78;4907707;29;20066;-78
2022/05/11 05:15:12;;;;;;;14.07;7.53;;;;;;;16.94;73.42;101230.25;4917428;29;20035;-77
2022/05/11 05:17:40;;;;;;;12.30;7.20;;;;;;;17.09;73.27;101245.75;4919662;29;20044;-77
2022/05/11 05:20:11;;;;;;;17.80;8.75;;;;;;;17.26;72.24;101249.84;4934337;29;20040;-77
2022/05/11 05:22:39;;;;;;;15.70;9.07;;;;;;;17.27;72.51;101257.00;4934545;29;20395;-78
2022/05/11 05:25:07;;;;;;;16.50;9.43;;;;;;;17.30;72.79;101253.63;4934495;29;20854;-78
2022/05/11 05:27:36;;;;;;;14.77;8.75;;;;;;;17.32;73.08;101260.47;4934309;29;20048;-77
2022/05/11 05:32:51;;;;;;;12.93;8.00;;;;;;;17.48;73.69;101268.44;4928605;29;20044;-77
2022/05/11 05:35:20;;;;;;;19.38;8.63;;;;;;;17.53;73.28;101259.19;4936672;29;20491;-77
2022/05/11 05:37:48;;;;;;;13.10;7.80;;;;;;;17.62;73.49;101257.34;4934770;29;20391;-77
2022/05/11 05:40:16;;;;;;;18.98;9.05;;;;;;;17.73;73.13;101267.06;4934026;29;20042;-78
2022/05/11 05:42:44;;;;;;;14.10;8.40;;;;;;;17.91;72.08;101261.66;4935741;29;20055;-77
2022/05/11 05:45:12;;;;;;;12.32;6.90;;;;;;;18.03;72.21;101265.81;4917874;29;20503;-77
2022/05/11 05:47:41;;;;;;;22.20;6.78;;;;;;;18.21;71.63;101275.94;4938584;29;20059;-76
2022/05/11 05:50:09;;;;;;;9.40;6.13;;;;;;;18.22;71.24;101279.50;4926115;29;20044;-77
2022/05/11 05:52:37;;;;;;;9.25;5.75;;;;;;;18.30;70.10;101286.25;4934748;29;20052;-77
2022/05/11 05:55:05;;;;;;;13.68;7.00;;;;;;;18.39;69.70;101290.69;4937803;29;20055;-78
2022/05/11 05:57:34;;;;;;;9.98;5.43;;;;;;;18.45;69.42;101285.03;4938555;29;20047;-78
2022/05/11 06:00:03;;;;;;;10.43;6.15;;;;;;;18.49;69.62;101295.19;4921885;29;20043;-78
2022/05/11 06:02:32;;;;;;;14.20;6.63;;;;;;;18.56;68.97;101299.47;4936891;29;20047;-78
2022/05/11 06:05:00;;;;;;;10.57;5.88;;;;;;;18.64;68.60;101296.75;4921647;29;20044;-78
2022/05/11 06:07:28;;;;;;;9.00;6.50;;;;;;;18.75;69.13;101302.81;4938120;29;20055;-78
2022/05/11 06:09:56;;;;;;;8.57;6.13;;;;;;;18.82;68.30;101296.00;4921524;29;20047;-78
2022/05/11 06:12:24;;;;;;;10.73;6.07;;;;;;;18.89;68.00;101299.94;4938313;29;20050;-78
2022/05/11 06:14:51;;;;;;;8.90;5.63;;;;;;;19.00;67.35;101294.09;4938341;29;20051;-77
2022/05/11 06:17:24;;;;;;;9.00;4.97;;;;;;;19.11;66.75;101308.56;4938120;29;20056;-78
2022/05/11 06:19:53;;;;;;;16.33;6.57;;;;;;;19.26;66.48;101315.63;4938309;29;20054;-78
2022/05/11 06:22:21;;;;;;;8.52;6.05;;;;;;;19.30;66.80;101313.81;4938072;29;20047;-78
2022/05/11 06:24:49;;;;;;;12.48;5.57;;;;;;;19.39;66.44;101313.84;4938234;29;20514;-78
2022/05/11 06:27:19;;;;;;;7.40;4.90;;;;;;;19.47;65.52;101304.75;4937831;29;20044;-78
2022/05/11 06:29:58;;;;;;;11.57;5.82;;;;;;;19.63;65.95;101310.63;4929912;29;20052;-78
2022/05/11 06:32:27;;;;;;;14.20;6.78;;;;;;;19.74;64.42;101313.91;4934638;29;20060;-78
2022/05/11 06:34:55;;;;;;;7.38;5.32;;;;;;;19.79;65.39;101313.75;4920879;29;20074;-78
2022/05/11 06:37:24;;;;;;;11.52;6.30;;;;;;;19.82;64.90;101310.34;4937654;29;20380;-78
2022/05/11 06:39:52;;;;;;;8.15;5.50;;;;;;;20.00;63.34;101304.81;4913569;29;20048;-78
2022/05/11 06:42:21;;;;;;;10.02;5.28;;;;;;;20.10;62.67;101312.00;4932078;29;20040;-78
2022/05/11 06:44:49;;;;;;;9.88;5.22;;;;;;;20.19;63.15;101303.66;4927367;29;20398;-78
2022/05/11 06:47:18;;;;;;;8.20;4.80;;;;;;;20.28;63.27;101310.03;4937529;29;20059;-78
2022/05/11 06:49:46;;;;;;;9.77;5.15;;;;;;;20.40;62.36;101307.38;4937653;29;20517;-77
2022/05/11 06:52:14;;;;;;;7.72;4.80;;;;;;;20.45;59.97;101303.63;4937589;29;20050;-78
2022/05/11 07:00:20;;;;;;;9.85;5.20;;;;;;;20.59;60.32;101311.78;4937393;29;20051;-78
2022/05/11 07:02:47;;;;;;;8.73;5.32;;;;;;;20.68;60.52;101303.41;4932182;29;20048;-78
2022/05/11 07:05:17;;;;;;;9.63;5.68;;;;;;;20.77;59.88;101304.19;4928311;29;20055;-78
2022/05/11 07:07:45;;;;;;;7.78;5.22;;;;;;;20.84;58.97;101292.56;4937069;29;20036;-78
2022/05/11 07:10:12;;;;;;;10.35;4.85;;;;;;;20.93;57.37;101300.91;4937352;29;20051;-78
2022/05/11 07:12:46;;;;;;;8.68;5.57;;;;;;;20.96;55.02;101296.66;4937243;29;20047;-78
2022/05/11 07:15:18;;;;;;;9.20;5.25;;;;;;;21.01;55.25;101291.69;4937255;29;20044;-78
2022/05/11 07:17:56;;;;;;;7.97;4.38;;;;;;;21.12;53.83;101294.91;4923514;29;20048;-78
2022/05/11 07:20:33;;;;;;;8.47;5.03;;;;;;;21.18;53.63;101296.38;4937105;29;20059;-77
2022/05/11 07:23:04;;;;;;;9.25;5.22;;;;;;;21.23;52.14;101288.97;4936905;29;20067;-77
2022/05/11 07:25:33;;;;;;;7.20;4.88;;;;;;;21.33;52.15;101294.16;4919856;29;20044;-77
2022/05/11 07:28:02;;;;;;;10.95;4.50;;;;;;;21.43;52.96;101298.50;4936542;29;20039;-78
2022/05/11 07:30:37;;;;;;;9.05;4.50;;;;;;;21.47;53.31;101291.94;4937067;29;20395;-78
2022/05/11 07:33:07;;;;;;;9.80;5.10;;;;;;;21.53;52.53;101302.88;4936673;29;20055;-78
2022/05/11 07:35:35;;;;;;;6.63;4.90;;;;;;;21.69;51.50;101298.34;4936618;29;20048;-77
2022/05/11 07:38:15;;;;;;;8.95;4.63;;;;;;;21.87;51.44;101301.03;4936726;29;20044;-77
2022/05/11 07:40:43;;;;;;;13.07;4.63;;;;;;;21.92;52.77;101303.59;4932115;29;20044;-77
2022/05/11 07:43:12;;;;;;;9.05;4.28;;;;;;;22.02;52.69;101306.00;4928074;29;20052;-77
2022/05/11 07:45:41;;;;;;;5.45;4.40;;;;;;;22.08;50.58;101300.19;4936386;29;20044;-77
2022/05/11 07:48:09;;;;;;;8.15;5.05;;;;;;;22.07;49.90;101298.56;4936335;29;20047;-77
2022/05/11 07:50:37;;;;;;;6.53;4.15;;;;;;;22.09;49.80;101299.03;4934075;29;20056;-77
2022/05/11 07:53:06;;;;;;;9.43;4.65;;;;;;;22.09;50.73;101304.63;4925546;29;20055;-77
2022/05/11 07:55:36;;;;;;;8.25;5.05;;;;;;;22.19;49.43;101301.38;4936316;29;20058;-78
2022/05/11 08:00:50;;;;;;;9.95;5.18;;;;;;;22.43;51.01;101297.06;4936265;29;20059;-76
2022/05/11 08:03:19;;;;;;;11.95;5.32;;;;;;;22.47;50.82;101297.19;4936051;29;20410;-77
2022/05/11 08:05:47;;;;;;;10.05;5.15;;;;;;;22.41;50.31;101296.59;4936102;29;20046;-77
2022/05/11 08:08:15;;;;;;;11.55;5.22;;;;;;;22.44;50.16;101284.78;4918461;29;20054;-77
2022/05/11 08:10:45;;;;;;;6.53;4.72;;;;;;;22.60;49.31;101293.31;4936137;29;20056;-83
2022/05/11 08:13:13;;;;;;;7.80;5.10;;;;;;;22.57;49.12;101290.41;4916287;29;20416;-75
2022/05/11 08:15:46;;;;;;;6.95;4.75;;;;;;;22.62;47.73;101287.41;4914763;29;20051;-75
2022/05/11 08:18:15;;;;;;;8.38;4.53;;;;;;;22.69;49.58;101290.44;4896347;29;20666;-76
2022/05/11 08:20:44;;;;;;;11.80;5.78;;;;;;;22.76;47.83;101295.41;4914831;29;20052;-76
2022/05/11 08:23:14;;;;;;;9.27;4.78;;;;;;;22.75;48.06;101289.03;4914678;29;20503;-76
2022/05/11 08:25:44;;;;;;;9.32;4.63;;;;;;;22.96;48.43;101296.47;4917956;29;20059;-76
2022/05/11 08:28:17;;;;;;;11.68;5.47;;;;;;;22.99;48.49;101287.44;4916647;29;20056;-76
2022/05/11 08:33:41;;;;;;;9.80;4.97;;;;;;;23.08;48.57;101285.31;4910861;29;20051;-75
2022/05/11 08:36:31;;;;;;;8.80;5.25;;;;;;;22.98;49.02;101284.97;4928042;29;20368;-75
2022/05/11 08:39:00;;;;;;;10.35;5.85;;;;;;;23.17;50.03;101290.00;4908348;29;20052;-76
2022/05/11 08:41:50;;;;;;;8.75;5.80;;;;;;;23.33;47.94;101292.91;4934274;29;20724;-75
2022/05/11 08:44:23;;;;;;;11.43;5.00;;;;;;;23.30;49.66;101283.22;4918620;29;20104;-76
2022/05/11 08:46:56;;;;;;;10.30;5.30;;;;;;;23.43;48.68;101294.41;4925998;29;20058;-76
2022/05/11 08:49:24;;;;;;;8.55;5.43;;;;;;;23.39;48.88;101296.25;4928929;29;20047;-58
2022/05/11 08:51:58;;;;;;;8.23;5.00;;;;;;;23.43;50.39;101292.44;4927894;29;20036;-72
2022/05/11 08:54:45;;;;;;;9.00;5.57;;;;;;;23.48;49.49;101294.16;4927247;29;20043;-71
2022/05/11 08:57:25;;;;;;;9.35;5.68;;;;;;;23.51;50.01;101292.66;4931066;29;20055;-72
2022/05/11 09:00:08;;;;;;;7.28;5.10;;;;;;;23.40;49.37;101298.72;4917923;29;20044;-72
2022/05/11 09:02:45;;;;;;;7.57;4.88;;;;;;;23.52;48.85;101289.53;4929238;29;20052;-72
2022/05/11 09:05:20;;;;;;;7.13;4.68;;;;;;;23.61;49.54;101290.19;4928010;29;20055;-72
2022/05/11 09:07:53;;;;;;;11.23;6.20;;;;;;;23.85;49.62;101287.69;4937325;29;20059;-71
2022/05/11 09:10:35;;;;;;;11.20;5.82;;;;;;;23.93;50.09;101288.69;4919085;29;20043;-71
2022/05/11 09:13:10;;;;;;;10.13;5.38;;;;;;;23.87;50.17;101288.97;4934976;29;20044;-72
2022/05/11 09:15:55;;;;;;;10.63;5.25;;;;;;;23.97;48.92;101287.66;4934802;29;20078;-71
2022/05/11 09:18:39;;;;;;;11.35;5.43;;;;;;;24.08;49.04;101287.16;4933411;29;20384;-71
2022/05/11 09:21:24;;;;;;;7.03;5.22;;;;;;;24.20;48.33;101289.91;4933525;29;20419;-71
2022/05/11 09:24:18;;;;;;;6.50;5.03;;;;;;;24.38;48.50;101289.56;4923699;29;20062;-71
2022/05/11 09:27:01;;;;;;;8.27;5.38;;;;;;;24.32;48.24;101286.22;4948867;29;20050;-72
2022/05/11 09:29:39;;;;;;;7.82;5.57;;;;;;;24.29;49.09;101286.94;4933961;29;20055;-72
2022/05/11 09:32:23;;;;;;;8.20;5.50;;;;;;;24.38;48.58;101284.78;4934697;29;20048;-72
2022/05/11 09:34:51;;;;;;;;;;;;;;;24.36;47.34;101292.75;4935272;29;20043;-72
2022/05/11 09:37:54;;;;;;;8.20;5.15;;;;;;;24.46;48.02;101280.22;4934462;29;19934;-72
2022/05/11 09:40:22;;;;;;;13.50;5.93;;;;;;;24.34;48.68;101283.88;4934831;29;20051;-72
2022/05/11 09:42:53;;;;;;;9.43;6.13;;;;;;;24.51;47.71;101271.56;4934705;29;20043;-72
2022/05/11 09:45:38;;;;;;;14.77;7.13;;;;;;;24.63;48.73;101276.25;4934807;29;20052;-72
2022/05/11 09:48:12;;;;;;;11.27;6.53;;;;;;;24.76;47.76;101274.19;4934428;29;20050;-73
2022/05/11 09:50:42;;;;;;;10.77;6.68;;;;;;;24.84;49.89;101266.81;4934761;29;20570;-72
2022/05/11 09:53:27;;;;;;;11.57;6.15;;;;;;;24.98;47.49;101273.94;4934613;29;20054;-72
2022/05/11 09:56:19;;;;;;;7.57;5.18;;;;;;;25.07;48.90;101280.16;4934535;29;20399;-72
2022/05/11 09:58:48;;;;;;;8.38;5.50;;;;;;;25.13;47.59;101281.50;4917685;29;20499;-73
2022/05/11 10:01:26;;;;;;;8.05;5.45;;;;;;;25.05;45.35;101285.28;4934615;29;20055;-73
2022/05/11 10:04:06;;;;;;;8.98;5.75;;;;;;;25.14;45.97;101277.53;4917701;29;20047;-73
2022/05/11 10:06:59;;;;;;;7.40;5.70;;;;;;;25.29;46.74;101269.44;4939657;29;20051;-72
2022/05/11 10:09:41;;;;;;;9.20;5.50;;;;;;;25.19;45.10;101279.22;4922185;29;20065;-72
2022/05/11 10:12:39;;;;;;;7.68;5.53;;;;;;;25.23;44.67;101264.13;4931434;29;20059;-72
2022/05/11 10:23:57;;;;;;;12.93;5.97;;;;;;;25.53;45.14;101264.78;4937907;29;20044;-72
2022/05/11 10:26:35;;;;;;;6.28;4.75;;;;;;;25.61;45.82;101264.59;4938812;29;20044;-72
2022/05/11 10:29:35;;;;;;;7.85;5.32;;;;;;;25.67;47.92;101267.09;4931517;29;20051;-72
2022/05/11 10:32:08;;;;;;;8.27;5.43;;;;;;;25.90;45.33;101259.56;4929381;29;20411;-72
2022/05/11 10:34:57;;;;;;;8.88;5.85;;;;;;;26.07;44.52;101268.72;4923916;29;20056;-72
2022/05/11 10:37:53;;;;;;;11.15;5.40;;;;;;;25.93;44.11;101252.41;4943577;29;20063;-72
2022/05/11 10:40:34;;;;;;;8.45;4.78;;;;;;;25.77;44.20;101250.50;4935608;29;20097;-72
2022/05/11 10:43:31;;;;;;;5.28;4.15;;;;;;;25.85;42.48;101245.06;4936197;29;20390;-72
2022/05/11 10:46:30;;;;;;;6.07;4.50;;;;;;;26.03;42.51;101251.00;4940324;29;20040;-72
2022/05/11 10:49:29;;;;;;;4.65;4.15;;;;;;;26.27;43.23;101244.28;4936024;29;20044;-72
2022/05/11 10:52:34;;;;;;;9.45;5.93;;;;;;;26.24;43.97;101239.41;4940032;29;20054;-72
2022/05/11 10:55:40;;;;;;;7.22;4.70;;;;;;;26.24;43.42;101242.22;4942965;29;20413;-72
2022/05/11 10:58:31;;;;;;;10.57;5.82;;;;;;;26.14;43.85;101242.78;4943129;29;20054;-72
2022/05/11 11:01:10;;;;;;;8.27;5.25;;;;;;;26.38;42.90;101238.88;4920154;29;20047;-72
2022/05/11 11:04:11;;;;;;;9.07;5.40;;;;;;;26.54;42.14;101230.31;4939014;29;20066;-73
2022/05/11 11:07:13;;;;;;;9.57;4.35;;;;;;;26.63;42.61;101230.06;4939874;29;20048;-72
2022/05/11 11:09:50;;;;;;;4.95;3.92;;;;;;;26.63;41.53;101220.84;4941997;29;20059;-71
2022/05/11 11:12:55;;;;;;;5.60;3.83;;;;;;;26.82;41.70;101222.72;4934829;29;20047;-71
2022/05/11 11:15:26;;;;;;;4.95;3.78;;;;;;;27.03;39.67;101219.47;4915804;29;20055;-71
2022/05/11 11:17:56;;;;;;;4.30;3.90;;;;;;;26.90;39.15;101218.03;4936252;29;20513;-71
2022/05/11 11:20:25;;;;;;;4.72;3.35;;;;;;;26.99;40.04;101215.00;4938849;29;20050;-71
2022/05/11 11:23:08;;;;;;;6.95;4.13;;;;;;;27.10;39.32;101230.00;4920387;29;20037;-71
2022/05/11 11:25:52;;;;;;;7.55;3.78;;;;;;;27.05;39.55;101214.31;4940782;29;20439;-71
2022/05/11 11:28:27;;;;;;;6.50;4.00;;;;;;;27.07;40.08;101211.09;4939180;29;20046;-71
2022/05/11 11:31:13;;;;;;;6.85;4.60;;;;;;;27.12;40.83;101210.78;4936853;29;20043;-71
2022/05/11 11:33:54;;;;;;;5.25;4.20;;;;;;;27.09;39.94;101219.97;4927323;29;20056;-71
2022/05/11 11:36:28;;;;;;;5.43;4.63;;;;;;;27.21;39.33;101210.50;4940835;29;20046;-71
2022/05/11 11:39:01;;;;;;;5.13;3.97;;;;;;;27.23;39.84;101197.69;4936388;29;20058;-71
2022/05/11 11:41:31;;;;;;;6.15;4.47;;;;;;;27.34;40.23;101209.09;4942810;29;20036;-71
2022/05/11 11:44:26;;;;;;;4.32;3.83;;;;;;;27.27;40.76;101202.56;4937879;29;20035;-71
2022/05/11 11:46:56;;;;;;;7.25;3.97;;;;;;;27.29;39.80;101201.00;4942964;29;20042;-71
2022/05/11 11:49:27;;;;;;;6.45;3.67;;;;;;;27.41;39.21;101205.53;4920546;29;20047;-71
2022/05/11 11:52:00;;;;;;;5.72;3.90;;;;;;;27.50;40.93;101199.63;4934707;28;20046;-71
2022/05/11 11:54:37;;;;;;;7.47;4.30;;;;;;;27.39;39.57;101199.50;4920645;29;20047;-71
2022/05/11 11:57:21;;;;;;;5.68;4.50;;;;;;;27.52;39.04;101197.28;4940782;29;20043;-71
2022/05/11 11:59:51;;;;;;;5.63;3.90;;;;;;;27.55;41.00;101193.69;4939645;29;20062;-71
2022/05/11 12:02:31;;;;;;;8.50;4.00;;;;;;;27.52;39.43;101186.03;4943924;29;20517;-71
2022/05/11 12:05:23;;;;;;;5.63;4.43;;;;;;;27.57;39.31;101193.31;4903604;29;20040;-71
2022/05/11 12:16:49;;;;;;;8.55;4.18;;;;;;;28.08;39.41;101166.56;4935727;29;20051;-71
2022/05/11 12:19:17;;;;;;;6.32;4.53;;;;;;;28.09;40.42;101165.34;4935827;29;20056;-72
2022/05/11 12:22:12;;;;;;;5.63;4.63;;;;;;;28.24;39.54;101171.16;4936011;29;20044;-71
2022/05/11 12:24:56;;;;;;;5.95;4.97;;;;;;;28.07;39.39;101170.56;4935772;29;20040;-71